DK-0028 weather

Varde Flyveplads
Varde, Denmark

Public forecast

Using degrees Celsius for public forecast. Weather courtesy of forecast.io.

METAR (pilot weather report)

Closest report is Esbjerg Airport, 6.2 nm (11.6 km) SE. Retrieved 2019/07/18 22:20 UTC (15 minutes ago):

EKEB 182220Z AUTO 24006KT 9000 +DZ ///////// 16/15 Q1010

TAF (pilot weather forecast)

Forecast is more than 12 hours old.

Closest forecast is Esbjerg Airport, 6.2 nm (11.6 km) SE. Retrieved 2015/09/18 18:00 UTC (4 years ago):

TAF EKEB 181707Z 1818/1822 24008KT 9999 SCT025 TEMPO 1818/1820 -SHRA SCT020CB